Terminal Aerodrome Forecast
Issued by NWS Duluth, MN

Home | Current Version | Previous Version | Text Only | Print | Product List | Glossary On
Versions: 1 2 3 4 5 6 7 8 9 10 11 12 13 14 15 16 17 18 19 20 21 22 23 24 25 26 27 28
000
FTUS43 KDLH 290536
TAFDLH
TAF
KDLH 290536Z 2906/3006 VRB02KT 2SM -DZ BR VCSH OVC002
     FM290800 VRB02KT 1SM -DZ BR VCSH OVC002
      TEMPO 2909/2912 1/4SM FG
     FM291400 28012KT P6SM BKN006 OVC018
     FM291700 29013G20KT P6SM VCSH OVC025
     FM292000 29013G20KT P6SM VCSH BKN040
     FM300200 29006KT P6SM FEW050=

USA.gov is the U.S. government's official web portal to all federal, state and local government web resources and services.